createdAt,value
2018-09-12T00:01:35.963Z,62.04
2018-09-12T00:04:05.435Z,61.70
2018-09-12T00:06:34.831Z,61.34
2018-09-12T00:09:06.047Z,61.44
2018-09-12T00:11:35.446Z,61.67
2018-09-12T00:14:04.871Z,61.58
2018-09-12T00:16:34.766Z,61.73
2018-09-12T00:19:04.153Z,61.83
2018-09-12T00:21:33.897Z,62.23
2018-09-12T00:24:03.305Z,62.11
2018-09-12T00:26:32.810Z,62.35
2018-09-12T00:29:02.194Z,62.74
2018-09-12T00:31:31.675Z,62.62
2018-09-12T00:34:01.060Z,62.74
2018-09-12T00:36:30.514Z,62.29
2018-09-12T00:39:00.885Z,62.93
2018-09-12T00:41:30.321Z,62.33
2018-09-12T00:43:59.693Z,63.25
2018-09-12T00:46:29.196Z,63.71
2018-09-12T00:48:58.602Z,63.94
2018-09-12T00:51:28.024Z,64.70
2018-09-12T00:53:57.418Z,64.53
2018-09-12T00:56:27.008Z,65.06
2018-09-12T00:58:56.427Z,65.27
2018-09-12T01:01:25.821Z,63.38
2018-09-12T01:03:55.254Z,64.64
2018-09-12T01:06:24.630Z,62.84
2018-09-12T01:08:54.031Z,61.42
2018-09-12T01:11:24.503Z,61.82
2018-09-12T01:13:55.231Z,58.70
2018-09-12T01:16:24.639Z,60.59
2018-09-12T01:18:54.077Z,61.79
2018-09-12T01:21:23.522Z,62.26
2018-09-12T01:23:52.927Z,63.03
2018-09-12T01:26:22.423Z,63.56
2018-09-12T01:28:51.800Z,64.18
2018-09-12T01:31:21.230Z,64.44
2018-09-12T01:33:50.711Z,64.63
2018-09-12T01:36:20.136Z,64.97
2018-09-12T01:38:49.521Z,64.92
2018-09-12T01:41:18.921Z,65.02
2018-09-12T01:43:48.291Z,66.04
2018-09-12T01:46:17.734Z,66.29
2018-09-12T01:48:47.230Z,66.87
2018-09-12T01:51:16.906Z,66.50
2018-09-12T01:53:46.287Z,66.67
2018-09-12T01:56:15.780Z,66.26
2018-09-12T01:58:45.368Z,66.57
2018-09-12T02:01:14.858Z,65.78
2018-09-12T02:03:44.238Z,65.54
2018-09-12T02:06:13.686Z,66.01
2018-09-12T02:08:43.091Z,67.40
2018-09-12T02:11:12.634Z,67.89
2018-09-12T02:13:42.109Z,68.50
2018-09-12T02:16:11.599Z,69.32
2018-09-12T02:18:40.980Z,69.68
2018-09-12T02:21:10.419Z,69.66
2018-09-12T02:23:39.798Z,69.93
2018-09-12T02:26:09.213Z,70.44
2018-09-12T02:28:38.619Z,70.22
2018-09-12T02:31:08.211Z,69.82
2018-09-12T02:33:37.640Z,69.56
2018-09-12T02:36:12.429Z,68.87
2018-09-12T02:38:41.851Z,69.21
2018-09-12T02:41:11.358Z,68.78
2018-09-12T02:43:40.763Z,69.01
2018-09-12T02:46:10.244Z,69.33
2018-09-12T02:48:39.619Z,69.87
2018-09-12T02:51:09.038Z,70.04
2018-09-12T02:53:38.479Z,70.56
2018-09-12T02:56:08.085Z,70.70
2018-09-12T02:58:37.487Z,71.13
2018-09-12T03:01:07.112Z,71.28
2018-09-12T03:03:36.582Z,70.97
2018-09-12T03:06:06.302Z,70.47
2018-09-12T03:08:35.692Z,70.75
2018-09-12T03:11:05.301Z,71.10
2018-09-12T03:13:34.847Z,71.31
2018-09-12T03:16:04.410Z,71.94
2018-09-12T03:18:33.830Z,72.88
2018-09-12T03:21:03.469Z,73.03
2018-09-12T03:23:32.777Z,73.43
2018-09-12T03:26:02.246Z,73.29
2018-09-12T03:28:31.676Z,73.43
2018-09-12T03:31:01.140Z,74.15
2018-09-12T03:33:30.551Z,73.97
2018-09-12T03:36:00.047Z,73.72
2018-09-12T03:38:29.429Z,71.84
2018-09-12T03:40:58.853Z,71.74
2018-09-12T03:43:28.228Z,72.84
2018-09-12T03:45:57.840Z,73.20
2018-09-12T03:48:27.223Z,73.87
2018-09-12T03:50:56.677Z,74.02
2018-09-12T03:53:26.098Z,73.99
2018-09-12T03:55:55.599Z,74.62
2018-09-12T03:58:25.004Z,74.36
2018-09-12T04:00:54.483Z,74.58
2018-09-12T04:03:24.002Z,74.73
2018-09-12T04:05:53.395Z,75.18
2018-09-12T04:08:22.791Z,75.22
2018-09-12T04:10:52.175Z,75.43
2018-09-12T04:13:21.570Z,75.10
2018-09-12T04:15:51.025Z,76.00
2018-09-12T04:18:20.463Z,76.51
2018-09-12T04:20:49.908Z,76.41
2018-09-12T04:23:19.326Z,76.29
2018-09-12T04:25:48.813Z,76.72
2018-09-12T04:28:18.208Z,76.42
2018-09-12T04:30:47.605Z,77.11
2018-09-12T04:33:17.266Z,76.91
2018-09-12T04:35:46.710Z,77.33
2018-09-12T04:38:16.105Z,77.18
2018-09-12T04:40:45.533Z,77.29
2018-09-12T04:43:14.897Z,76.96
2018-09-12T04:45:44.340Z,75.84
2018-09-12T04:48:13.754Z,76.35
2018-09-12T04:50:43.283Z,76.51
2018-09-12T04:53:12.667Z,77.22
2018-09-12T04:55:42.059Z,76.88
2018-09-12T04:58:11.444Z,77.06
2018-09-12T05:00:40.849Z,76.88
2018-09-12T05:03:10.253Z,77.67
2018-09-12T05:05:39.675Z,78.09
2018-09-12T05:08:09.066Z,78.77
2018-09-12T05:10:38.536Z,78.63
2018-09-12T05:13:07.961Z,78.11
2018-09-12T05:15:37.371Z,78.70
2018-09-12T05:18:06.790Z,78.78
2018-09-12T05:20:36.282Z,78.53
2018-09-12T05:23:05.671Z,78.70
2018-09-12T05:25:35.106Z,78.87
2018-09-12T05:28:04.493Z,78.50
2018-09-12T05:30:33.897Z,78.56
2018-09-12T05:33:03.298Z,78.38
2018-09-12T05:35:32.691Z,78.48
2018-09-12T05:38:02.137Z,78.32
2018-09-12T05:40:31.670Z,77.71
2018-09-12T05:43:01.054Z,78.13
2018-09-12T05:45:30.537Z,77.68
2018-09-12T05:47:59.900Z,77.40
2018-09-12T05:50:29.308Z,77.27
2018-09-12T05:52:58.705Z,77.02
2018-09-12T05:55:28.100Z,76.86
2018-09-12T05:57:57.501Z,76.19
2018-09-12T06:00:26.918Z,76.19
2018-09-12T06:02:56.298Z,75.98
2018-09-12T06:05:25.678Z,75.77
2018-09-12T06:07:55.095Z,74.98
2018-09-12T06:10:24.515Z,74.60
2018-09-12T06:12:53.886Z,73.84
2018-09-12T06:15:23.327Z,74.48
2018-09-12T06:17:52.679Z,74.08
2018-09-12T06:20:22.087Z,73.77
2018-09-12T06:22:51.475Z,73.56
2018-09-12T06:25:20.947Z,73.35
2018-09-12T06:27:50.302Z,73.29
2018-09-12T06:30:19.764Z,72.66
2018-09-12T06:32:49.172Z,72.65
2018-09-12T06:35:18.678Z,72.41
2018-09-12T06:37:48.089Z,71.82
2018-09-12T06:40:17.463Z,70.94
2018-09-12T06:42:46.828Z,70.46
2018-09-12T06:45:16.285Z,69.56
2018-09-12T06:47:45.679Z,69.05
2018-09-12T06:50:15.069Z,68.71
2018-09-12T06:52:44.456Z,67.68
2018-09-12T06:55:13.855Z,66.81
2018-09-12T06:57:43.249Z,65.88
2018-09-12T07:00:12.680Z,65.93
2018-09-12T07:02:42.036Z,65.80
2018-09-12T07:05:11.487Z,65.04
2018-09-12T07:07:40.934Z,65.34
2018-09-12T07:10:10.294Z,65.15
2018-09-12T07:12:39.666Z,64.58
2018-09-12T07:15:09.079Z,64.18
2018-09-12T07:17:38.430Z,64.56
2018-09-12T07:20:07.810Z,63.73
2018-09-12T07:22:37.293Z,63.59
2018-09-12T07:25:06.756Z,62.74
2018-09-12T07:27:36.257Z,62.89
2018-09-12T07:30:05.799Z,62.30
2018-09-12T07:32:35.235Z,61.44
2018-09-12T07:35:04.652Z,60.94
2018-09-12T07:37:33.964Z,60.98
2018-09-12T07:40:03.502Z,60.65
2018-09-12T07:42:32.952Z,60.46
2018-09-12T07:45:02.439Z,59.58
2018-09-12T07:47:31.806Z,58.97
2018-09-12T07:50:01.254Z,58.83
2018-09-12T07:52:30.621Z,58.39
2018-09-12T07:55:00.046Z,58.02
2018-09-12T07:57:29.473Z,57.85
2018-09-12T07:59:58.957Z,56.73
2018-09-12T08:02:28.352Z,56.09
2018-09-12T08:04:57.821Z,56.17
2018-09-12T08:07:27.156Z,55.77
2018-09-12T08:09:56.575Z,54.87
2018-09-12T08:12:25.939Z,54.47
2018-09-12T08:14:55.362Z,53.71
2018-09-12T08:17:24.743Z,53.56
2018-09-12T08:19:54.169Z,52.66
2018-09-12T08:22:23.554Z,52.49
2018-09-12T08:24:52.977Z,52.20
2018-09-12T08:27:22.355Z,51.81
2018-09-12T08:29:51.797Z,51.41
2018-09-12T08:32:21.152Z,51.27
2018-09-12T08:34:50.574Z,50.68
2018-09-12T08:37:19.955Z,51.41
2018-09-12T08:39:49.399Z,50.73
2018-09-12T08:42:18.855Z,50.49
2018-09-12T08:44:48.198Z,49.26
2018-09-12T08:47:17.576Z,49.35
2018-09-12T08:49:47.034Z,48.94
2018-09-12T08:52:16.392Z,47.83
2018-09-12T08:54:45.826Z,46.16
2018-09-12T08:57:15.201Z,46.64
2018-09-12T08:59:44.631Z,44.45
2018-09-12T09:02:14.018Z,43.63
2018-09-12T09:04:43.417Z,40.25
2018-09-12T09:07:12.791Z,40.00
2018-09-12T09:09:42.184Z,39.28
2018-09-12T09:12:11.550Z,39.00
2018-09-12T09:14:41.062Z,38.67
2018-09-12T09:17:10.516Z,38.98
2018-09-12T09:19:39.841Z,38.36
2018-09-12T09:22:09.241Z,38.82
2018-09-12T09:24:38.635Z,38.05
2018-09-12T09:27:08.116Z,39.61
2018-09-12T09:29:37.522Z,39.04
2018-09-12T09:32:07.122Z,38.42
2018-09-12T09:34:36.494Z,39.34
2018-09-12T09:37:06.059Z,38.38
2018-09-12T09:39:35.443Z,37.51
2018-09-12T09:42:04.875Z,37.25
2018-09-12T09:44:34.243Z,37.37
2018-09-12T09:47:03.665Z,36.30
2018-09-12T09:49:33.060Z,35.92
2018-09-12T09:52:02.482Z,36.21
2018-09-12T09:54:31.936Z,36.07
2018-09-12T09:57:01.258Z,36.47
2018-09-12T09:59:30.762Z,37.21
2018-09-12T10:02:05.439Z,37.17
2018-09-12T10:04:40.165Z,36.63
2018-09-12T10:07:14.767Z,36.23
2018-09-12T10:09:44.154Z,35.98
2018-09-12T10:12:13.572Z,37.26
2018-09-12T10:14:42.971Z,36.63
2018-09-12T10:17:12.373Z,36.35
2018-09-12T10:19:41.745Z,36.67
2018-09-12T10:22:11.230Z,37.24
2018-09-12T10:24:40.554Z,37.63
2018-09-12T10:27:10.009Z,37.08
2018-09-12T10:29:39.386Z,37.37
2018-09-12T10:32:08.798Z,36.09
2018-09-12T10:34:42.010Z,36.14
2018-09-12T10:37:12.030Z,36.88
2018-09-12T10:39:41.401Z,37.47
2018-09-12T10:42:10.821Z,36.19
2018-09-12T10:44:40.334Z,37.06
2018-09-12T10:47:09.933Z,36.64
2018-09-12T10:49:39.317Z,36.38
2018-09-12T10:52:08.710Z,35.81
2018-09-12T10:54:38.084Z,35.46
2018-09-12T10:57:07.525Z,36.21
2018-09-12T10:59:36.894Z,35.06
2018-09-12T11:02:06.317Z,35.74
2018-09-12T11:04:35.768Z,34.67
2018-09-12T11:07:05.138Z,33.46
2018-09-12T11:09:34.519Z,33.55
2018-09-12T11:12:03.923Z,33.47
2018-09-12T11:14:33.297Z,33.04
2018-09-12T11:17:02.767Z,33.70
2018-09-12T11:19:32.250Z,33.79
2018-09-12T11:22:01.655Z,31.50
2018-09-12T11:24:31.012Z,31.33
2018-09-12T11:27:00.462Z,32.04
2018-09-12T11:29:29.869Z,31.61
2018-09-12T11:31:59.414Z,31.99
2018-09-12T11:34:28.775Z,30.04
2018-09-12T11:36:58.179Z,29.89
2018-09-12T11:39:27.543Z,30.48
2018-09-12T11:41:56.999Z,30.33
2018-09-12T11:44:26.381Z,31.26
2018-09-12T11:46:55.747Z,29.82
2018-09-12T11:49:25.144Z,29.36
2018-09-12T11:51:54.611Z,28.89
2018-09-12T11:54:23.979Z,28.97
2018-09-12T11:56:53.486Z,28.34
2018-09-12T11:59:22.862Z,28.78
2018-09-12T12:01:52.335Z,27.11
2018-09-12T12:04:21.708Z,28.17
2018-09-12T12:06:51.115Z,29.60
2018-09-12T12:09:20.490Z,29.79
2018-09-12T12:11:50.013Z,29.13
2018-09-12T12:14:19.358Z,28.11
2018-09-12T12:16:48.818Z,27.56
2018-09-12T12:19:18.218Z,27.66
2018-09-12T12:25:20.249Z,28.00
2018-09-12T12:27:49.640Z,25.30
2018-09-12T12:30:19.135Z,27.91
2018-09-12T12:32:48.503Z,26.25
2018-09-12T12:35:17.982Z,27.02
2018-09-12T12:37:47.334Z,26.06
2018-09-12T12:40:16.742Z,27.69
2018-09-12T12:42:46.371Z,27.26
2018-09-12T12:45:15.974Z,29.45
2018-09-12T12:47:45.361Z,28.06
2018-09-12T12:50:14.751Z,30.22
2018-09-12T12:52:44.119Z,29.91
2018-09-12T12:55:13.557Z,28.87
2018-09-12T12:57:42.950Z,27.25
2018-09-12T13:00:12.363Z,25.56
2018-09-12T13:02:41.732Z,26.35
2018-09-12T13:05:11.177Z,25.86
2018-09-12T13:07:40.532Z,26.94
2018-09-12T13:10:09.958Z,27.17
2018-09-12T13:12:39.334Z,28.82
2018-09-12T13:15:08.776Z,27.37
2018-09-12T13:17:38.137Z,28.25
2018-09-12T13:20:07.815Z,26.84
2018-09-12T13:22:37.218Z,26.86
2018-09-12T13:25:06.990Z,24.77
2018-09-12T13:27:36.422Z,25.74
2018-09-12T13:30:06.098Z,23.61
2018-09-12T13:32:35.474Z,24.73
2018-09-12T13:35:04.934Z,23.99
2018-09-12T13:37:34.330Z,25.39
2018-09-12T13:40:03.732Z,24.47
2018-09-12T13:42:33.067Z,23.95
2018-09-12T13:45:02.429Z,23.78
2018-09-12T13:47:31.803Z,23.76
2018-09-12T13:50:01.224Z,24.96
2018-09-12T13:52:30.594Z,24.34
2018-09-12T13:55:00.055Z,25.71
2018-09-12T13:57:29.418Z,25.11
2018-09-12T13:59:59.077Z,25.62
2018-09-12T14:02:28.453Z,24.00
2018-09-12T14:04:57.831Z,25.03
2018-09-12T14:07:27.225Z,23.77
2018-09-12T14:09:56.723Z,24.08
2018-09-12T14:12:26.113Z,24.40
2018-09-12T14:14:55.551Z,24.77
2018-09-12T14:17:24.950Z,23.38
2018-09-12T14:19:54.316Z,23.17
2018-09-12T14:22:23.776Z,26.69
2018-09-12T14:24:53.168Z,24.87
2018-09-12T14:27:22.611Z,22.93
2018-09-12T14:29:51.999Z,26.79
2018-09-12T14:32:21.440Z,23.75
2018-09-12T14:34:50.777Z,23.04
2018-09-12T14:37:20.298Z,24.32
2018-09-12T14:39:49.673Z,22.85
2018-09-12T14:42:19.184Z,22.42
2018-09-12T14:44:48.594Z,25.30
2018-09-12T14:47:17.982Z,23.48
2018-09-12T14:49:47.344Z,23.29
2018-09-12T14:52:16.806Z,23.19
2018-09-12T14:54:46.171Z,22.93
2018-09-12T14:57:15.627Z,23.48
2018-09-12T14:59:44.991Z,23.85
2018-09-12T15:02:14.429Z,23.06
2018-09-12T15:04:43.868Z,22.43
2018-09-12T15:07:13.336Z,22.91
2018-09-12T15:09:42.707Z,23.06
2018-09-12T15:12:12.063Z,24.05
2018-09-12T15:14:41.415Z,24.42
2018-09-12T15:17:10.818Z,25.45
2018-09-12T15:19:40.186Z,24.75
2018-09-12T15:22:09.658Z,23.54
2018-09-12T15:24:39.051Z,23.95
2018-09-12T15:27:08.538Z,25.50
2018-09-12T15:29:37.947Z,26.34
2018-09-12T15:32:07.450Z,25.37
2018-09-12T15:34:36.857Z,24.80
2018-09-12T15:37:06.325Z,24.43
2018-09-12T15:39:35.647Z,24.87
2018-09-12T15:42:05.072Z,26.08
2018-09-12T15:44:34.435Z,25.79
2018-09-12T15:47:03.984Z,26.67
2018-09-12T15:49:33.251Z,24.15
2018-09-12T15:52:02.616Z,26.18
2018-09-12T15:54:31.985Z,24.39
2018-09-12T15:57:01.406Z,25.96
2018-09-12T15:59:30.766Z,26.84
2018-09-12T16:02:00.427Z,27.36
2018-09-12T16:04:29.801Z,27.13
2018-09-12T16:06:59.220Z,26.59
2018-09-12T16:09:28.614Z,26.59
2018-09-12T16:11:57.995Z,26.19
2018-09-12T16:14:27.374Z,27.24
2018-09-12T16:16:56.812Z,27.19
2018-09-12T16:19:26.320Z,26.85
2018-09-12T16:21:55.857Z,25.50
2018-09-12T16:24:25.234Z,26.67
2018-09-12T16:26:54.767Z,28.36
2018-09-12T16:29:24.131Z,30.41
2018-09-12T16:31:53.542Z,31.15
2018-09-12T16:34:22.915Z,32.70
2018-09-12T16:36:52.353Z,33.26
2018-09-12T16:39:21.732Z,32.31
2018-09-12T16:41:51.122Z,32.85
2018-09-12T16:44:20.504Z,33.40
2018-09-12T16:46:49.919Z,33.31
2018-09-12T16:49:19.271Z,32.95
2018-09-12T16:51:48.654Z,34.06
2018-09-12T16:54:18.006Z,33.74
2018-09-12T16:56:47.470Z,33.94
2018-09-12T16:59:16.803Z,32.99
2018-09-12T17:01:46.251Z,34.08
2018-09-12T17:04:15.653Z,33.16
2018-09-12T17:06:45.080Z,33.45
2018-09-12T17:09:14.445Z,35.10
2018-09-12T17:11:43.875Z,35.84
2018-09-12T17:14:13.280Z,33.52
2018-09-12T17:16:42.667Z,33.60
2018-09-12T17:19:12.040Z,34.44
2018-09-12T17:21:41.484Z,34.20
2018-09-12T17:24:10.852Z,33.81
2018-09-12T17:26:40.275Z,34.62
2018-09-12T17:29:09.643Z,35.77
2018-09-12T17:31:39.080Z,34.48
2018-09-12T17:34:08.455Z,34.44
2018-09-12T17:36:37.891Z,35.02
2018-09-12T17:39:09.130Z,35.43
2018-09-12T17:41:38.556Z,35.75
2018-09-12T17:44:07.923Z,35.95
2018-09-12T17:46:37.375Z,35.23
2018-09-12T17:49:06.739Z,37.96
2018-09-12T17:51:36.139Z,36.31
2018-09-12T17:54:05.514Z,37.20
2018-09-12T17:56:34.998Z,36.69
2018-09-12T17:59:04.366Z,37.34
2018-09-12T18:01:33.783Z,38.03
2018-09-12T18:04:03.155Z,36.88
2018-09-12T18:06:32.580Z,37.95
2018-09-12T18:09:01.955Z,38.12
2018-09-12T18:11:31.384Z,39.20
2018-09-12T18:14:00.764Z,39.24
2018-09-12T18:16:30.216Z,37.69
2018-09-12T18:18:59.573Z,39.43
2018-09-12T18:21:28.946Z,38.38
2018-09-12T18:24:00.549Z,37.47
2018-09-12T18:26:30.043Z,37.82
2018-09-12T18:28:59.642Z,38.06
2018-09-12T18:31:29.056Z,39.12
2018-09-12T18:33:58.473Z,38.22
2018-09-12T18:36:27.876Z,39.17
2018-09-12T18:38:57.278Z,37.78
2018-09-12T18:41:26.663Z,38.44
2018-09-12T18:43:56.069Z,38.99
2018-09-12T18:46:25.459Z,39.98
2018-09-12T18:48:54.895Z,38.35
2018-09-12T18:51:24.284Z,39.55
2018-09-12T18:53:53.743Z,40.62
2018-09-12T18:56:23.149Z,39.16
2018-09-12T18:58:52.530Z,39.68
2018-09-12T19:01:22.110Z,41.02
2018-09-12T19:03:51.471Z,39.84
2018-09-12T19:06:20.880Z,39.82
2018-09-12T19:08:50.322Z,39.98
2018-09-12T19:11:19.720Z,39.38
2018-09-12T19:13:49.117Z,39.37
2018-09-12T19:16:18.630Z,41.10
2018-09-12T19:18:48.112Z,40.18
2018-09-12T19:21:17.603Z,40.32
2018-09-12T19:23:46.924Z,41.59
2018-09-12T19:26:16.410Z,41.49
2018-09-12T19:28:45.755Z,42.12
2018-09-12T19:31:15.303Z,40.76
2018-09-12T19:33:44.702Z,40.06
2018-09-12T19:36:14.111Z,40.38
2018-09-12T19:38:43.572Z,39.58
2018-09-12T19:41:12.931Z,38.98
2018-09-12T19:43:42.374Z,40.35
2018-09-12T19:46:11.764Z,40.03
2018-09-12T19:48:41.165Z,39.35
2018-09-12T19:51:16.783Z,40.19
2018-09-12T19:53:46.779Z,40.02
2018-09-12T19:56:16.393Z,40.89
2018-09-12T19:58:46.085Z,39.86
2018-09-12T20:01:15.474Z,39.78
2018-09-12T20:03:44.974Z,40.32
2018-09-12T20:06:14.377Z,39.96
2018-09-12T20:08:43.880Z,40.28
2018-09-12T20:11:13.265Z,39.33
2018-09-12T20:13:42.675Z,39.94
2018-09-12T20:16:12.122Z,39.31
2018-09-12T20:18:41.493Z,39.81
2018-09-12T20:21:10.994Z,40.86
2018-09-12T20:23:40.448Z,41.28
2018-09-12T20:26:09.779Z,41.05
2018-09-12T20:28:41.530Z,41.19
2018-09-12T20:31:11.302Z,40.90
2018-09-12T20:33:40.735Z,41.35
2018-09-12T20:36:10.174Z,41.12
2018-09-12T20:38:39.774Z,40.95
2018-09-12T20:41:09.163Z,41.46
2018-09-12T20:43:38.662Z,41.53
2018-09-12T20:46:08.053Z,41.86
2018-09-12T20:48:37.518Z,42.52
2018-09-12T20:51:07.039Z,43.02
2018-09-12T20:53:36.491Z,42.50
2018-09-12T20:56:05.890Z,42.93
2018-09-12T20:58:35.385Z,43.76
2018-09-12T21:01:04.823Z,44.06
2018-09-12T21:03:34.308Z,44.97
2018-09-12T21:06:03.711Z,46.45
2018-09-12T21:08:33.194Z,47.59
2018-09-12T21:11:02.579Z,48.18
2018-09-12T21:13:32.027Z,47.80
2018-09-12T21:16:01.420Z,48.35
2018-09-12T21:18:31.651Z,48.02
2018-09-12T21:21:01.074Z,45.47
2018-09-12T21:23:30.568Z,45.89
2018-09-12T21:25:59.930Z,46.81
2018-09-12T21:28:29.331Z,46.02
2018-09-12T21:30:58.807Z,47.30
2018-09-12T21:33:28.248Z,48.61
2018-09-12T21:35:57.716Z,48.25
2018-09-12T21:38:27.111Z,48.17
2018-09-12T21:40:56.602Z,47.92
2018-09-12T21:43:25.994Z,47.95
2018-09-12T21:45:56.582Z,47.61
2018-09-12T21:48:25.964Z,47.87
2018-09-12T21:50:55.498Z,48.53
2018-09-12T21:53:24.953Z,49.87
2018-09-12T21:55:54.364Z,50.53
2018-09-12T21:58:23.941Z,54.05
2018-09-12T22:00:53.347Z,56.17
2018-09-12T22:03:22.969Z,57.15
2018-09-12T22:05:52.400Z,56.88
2018-09-12T22:08:21.788Z,57.16
2018-09-12T22:10:51.278Z,57.16
2018-09-12T22:13:20.738Z,56.70
2018-09-12T22:15:50.170Z,56.14
2018-09-12T22:18:19.514Z,55.86
2018-09-12T22:20:48.899Z,55.61
2018-09-12T22:23:18.271Z,54.86
2018-09-12T22:25:47.644Z,54.28
2018-09-12T22:28:17.067Z,54.70
2018-09-12T22:30:46.522Z,54.68
2018-09-12T22:33:15.974Z,55.14
2018-09-12T22:35:45.366Z,54.99
2018-09-12T22:38:14.743Z,55.67
2018-09-12T22:40:44.199Z,55.71
2018-09-12T22:43:13.577Z,56.24
2018-09-12T22:45:42.985Z,56.66
2018-09-12T22:48:12.350Z,56.32
2018-09-12T22:50:41.728Z,56.62
2018-09-12T22:53:11.122Z,56.86
2018-09-12T22:55:40.494Z,58.09
2018-09-12T22:58:09.850Z,58.50
2018-09-12T23:00:39.222Z,58.92
2018-09-12T23:03:08.714Z,59.03
2018-09-12T23:05:38.335Z,59.89
2018-09-12T23:08:07.852Z,60.44
2018-09-12T23:10:37.722Z,60.84
2018-09-12T23:13:07.128Z,60.49
2018-09-12T23:15:36.510Z,61.17
2018-09-12T23:18:06.181Z,61.66
2018-09-12T23:20:35.673Z,61.86
2018-09-12T23:23:05.498Z,62.44
2018-09-12T23:25:34.878Z,62.58
2018-09-12T23:28:04.415Z,62.45
2018-09-12T23:30:33.781Z,62.87
2018-09-12T23:33:03.177Z,63.83
2018-09-12T23:35:32.531Z,63.83
2018-09-12T23:38:01.991Z,64.54
2018-09-12T23:40:31.367Z,65.19
2018-09-12T23:43:00.802Z,64.59
2018-09-12T23:45:30.176Z,65.29
2018-09-12T23:47:59.563Z,64.88
2018-09-12T23:50:28.953Z,65.13
2018-09-12T23:52:58.380Z,65.78
2018-09-12T23:55:27.725Z,65.76
2018-09-12T23:57:57.251Z,66.03
